Time;durP1;ratioP1;P1;durP2;ratioP2;P2;SDS_P1;SDS_P2;PMS_P1;PMS_P2;Temp;Humidity;BMP_temperature;BMP_pressure;BME280_temperature;BME280_humidity;BME280_pressure;Samples;Min_cycle;Max_cycle;Signal;HPM_P1;HPM_P2
2023/07/23 00:00:47;;;;;;;4.53;2.22;;;;;;;21.91;45.10;100595.19;5103911;28;20055;-61
2023/07/23 00:03:15;;;;;;;6.35;2.25;;;;;;;21.97;44.68;100599.19;5118385;28;20055;-61
2023/07/23 00:05:44;;;;;;;4.20;1.92;;;;;;;21.64;45.87;100590.97;5116382;28;20055;-60
2023/07/23 00:08:13;;;;;;;4.82;1.90;;;;;;;21.63;45.87;100591.34;5131771;28;20070;-60
2023/07/23 00:10:40;;;;;;;8.10;2.28;;;;;;;21.58;46.37;100595.34;5111720;28;20056;-60
2023/07/23 00:13:08;;;;;;;6.85;2.13;;;;;;;21.53;46.27;100598.47;5112029;28;20082;-61
2023/07/23 00:15:35;;;;;;;6.90;2.03;;;;;;;21.39;46.88;100594.78;5086704;28;20052;-59
2023/07/23 00:18:03;;;;;;;3.13;1.73;;;;;;;21.39;46.83;100587.19;5112225;28;20048;-60
2023/07/23 00:20:30;;;;;;;3.50;2.05;;;;;;;21.53;46.75;100584.47;5100188;28;20055;-59
2023/07/23 00:22:58;;;;;;;4.05;2.15;;;;;;;21.42;47.09;100583.63;5113499;28;20043;-60
2023/07/23 00:25:25;;;;;;;6.10;2.35;;;;;;;21.53;47.13;100583.69;5113575;28;20043;-60
2023/07/23 00:27:52;;;;;;;6.30;2.70;;;;;;;21.58;46.78;100580.50;5063953;28;20049;-59
2023/07/23 00:30:20;;;;;;;6.28;2.30;;;;;;;21.56;46.78;100585.69;5109480;28;20055;-60
2023/07/23 00:32:47;;;;;;;7.30;2.05;;;;;;;21.49;47.06;100583.66;5109704;28;20056;-60
2023/07/23 00:35:16;;;;;;;4.28;2.08;;;;;;;21.36;47.61;100589.97;5096333;28;20040;-59
2023/07/23 00:37:43;;;;;;;6.70;1.80;;;;;;;21.34;48.00;100583.94;5114884;28;20051;-58
2023/07/23 00:40:11;;;;;;;3.72;2.00;;;;;;;21.30;47.85;100574.72;5068665;28;20411;-60
2023/07/23 00:42:38;;;;;;;4.95;2.38;;;;;;;21.53;47.03;100578.09;5075389;28;20974;-60
2023/07/23 00:45:06;;;;;;;4.88;2.60;;;;;;;21.58;47.23;100572.91;5094328;28;20032;-60
2023/07/23 00:47:34;;;;;;;6.43;2.10;;;;;;;21.43;47.62;100573.22;5094272;28;20056;-59
2023/07/23 00:50:02;;;;;;;5.57;2.17;;;;;;;21.19;48.37;100580.22;5094195;28;20077;-62
2023/07/23 00:52:30;;;;;;;5.65;2.20;;;;;;;21.39;47.77;100559.19;5093762;28;20048;-63
2023/07/23 00:54:58;;;;;;;7.03;2.28;;;;;;;21.33;48.50;100559.91;5080503;28;20581;-62
2023/07/23 00:57:26;;;;;;;4.30;2.10;;;;;;;21.07;49.52;100563.72;5076195;28;20055;-63
2023/07/23 00:59:56;;;;;;;5.43;2.08;;;;;;;21.14;49.51;100549.78;5091645;28;20052;-62
2023/07/23 01:02:26;;;;;;;7.32;2.28;;;;;;;21.01;49.98;100552.06;5093876;28;20043;-62
2023/07/23 01:04:55;;;;;;;4.70;1.88;;;;;;;21.03;50.44;100544.09;5093587;28;20047;-63
2023/07/23 01:07:23;;;;;;;8.38;2.72;;;;;;;20.99;50.97;100550.88;5067416;28;20052;-60
2023/07/23 01:09:51;;;;;;;8.25;2.40;;;;;;;21.35;50.00;100547.13;5091123;28;20052;-60
2023/07/23 01:12:19;;;;;;;5.32;2.10;;;;;;;21.08;50.69;100540.94;5094254;28;20047;-61
2023/07/23 01:14:47;;;;;;;6.95;2.72;;;;;;;21.02;51.48;100538.88;5094294;28;20040;-60
2023/07/23 01:17:15;;;;;;;6.15;2.38;;;;;;;21.04;51.30;100539.31;5093076;28;20712;-60
2023/07/23 01:19:43;;;;;;;5.40;2.20;;;;;;;20.95;51.57;100533.19;5088011;28;20055;-61
2023/07/23 01:22:11;;;;;;;7.10;2.60;;;;;;;21.05;51.75;100524.91;5091306;28;20051;-63
2023/07/23 01:24:38;;;;;;;5.35;2.78;;;;;;;20.92;52.06;100514.38;5094020;28;20066;-62
2023/07/23 01:27:06;;;;;;;5.30;2.83;;;;;;;20.90;52.10;100517.53;5093370;28;20047;-60
2023/07/23 01:29:34;;;;;;;6.95;2.53;;;;;;;21.03;51.78;100504.88;5090413;28;20480;-59
2023/07/23 01:32:01;;;;;;;6.78;2.60;;;;;;;20.76;52.96;100511.84;5089642;28;20052;-58
2023/07/23 01:34:29;;;;;;;5.03;2.55;;;;;;;20.86;52.50;100510.31;5091320;28;20059;-64
2023/07/23 01:36:57;;;;;;;6.80;2.40;;;;;;;20.74;52.94;100503.03;5095620;28;21741;-64
2023/07/23 01:39:24;;;;;;;6.10;2.75;;;;;;;20.85;52.43;100508.72;5091857;28;20052;-61
2023/07/23 01:41:52;;;;;;;5.22;2.40;;;;;;;20.96;52.63;100504.78;5075040;28;20170;-63
2023/07/23 01:44:21;;;;;;;4.97;2.15;;;;;;;21.08;52.51;100496.09;5076775;28;20101;-59
2023/07/23 01:46:50;;;;;;;4.68;2.28;;;;;;;21.01;52.57;100495.25;5093025;28;20055;-62
2023/07/23 01:49:17;;;;;;;7.13;2.42;;;;;;;20.87;52.74;100495.91;5074691;28;20055;-63
2023/07/23 01:51:45;;;;;;;5.63;2.35;;;;;;;20.91;52.92;100484.75;5094479;28;20491;-62
2023/07/23 01:54:12;;;;;;;4.13;2.45;;;;;;;20.90;53.18;100494.34;5058122;28;20047;-60
2023/07/23 01:56:39;;;;;;;5.03;2.75;;;;;;;20.72;53.79;100498.97;5058798;28;20044;-60
2023/07/23 01:59:08;;;;;;;7.07;2.75;;;;;;;20.78;53.88;100489.84;5092819;28;20043;-60
2023/07/23 02:01:35;;;;;;;5.28;2.67;;;;;;;20.93;53.76;100482.38;5073526;28;20403;-62
2023/07/23 02:04:03;;;;;;;8.35;2.70;;;;;;;20.75;54.45;100482.22;5098884;28;20051;-63
2023/07/23 02:06:30;;;;;;;7.40;2.67;;;;;;;20.58;54.88;100480.06;5075400;28;20055;-62
2023/07/23 02:08:58;;;;;;;3.70;2.40;;;;;;;20.70;54.71;100484.56;5092805;28;20048;-63
2023/07/23 02:11:25;;;;;;;5.15;2.72;;;;;;;20.77;54.27;100490.22;5076351;28;20047;-64
2023/07/23 02:13:53;;;;;;;7.90;2.97;;;;;;;20.72;54.74;100487.78;5091885;28;20051;-60
2023/07/23 02:16:21;;;;;;;5.45;2.55;;;;;;;20.83;54.36;100477.50;5057337;28;20146;-60
2023/07/23 02:18:50;;;;;;;4.72;2.53;;;;;;;20.84;54.51;100490.28;5065051;28;20503;-60
2023/07/23 02:21:17;;;;;;;7.65;2.63;;;;;;;20.91;54.57;100487.53;5074917;28;20462;-60
2023/07/23 02:23:45;;;;;;;5.75;2.42;;;;;;;20.86;54.46;100485.09;5093413;28;20040;-60
2023/07/23 02:26:12;;;;;;;6.35;2.40;;;;;;;20.74;55.48;100480.63;5092095;28;20040;-60
2023/07/23 02:28:42;;;;;;;5.28;2.40;;;;;;;20.53;56.33;100480.44;5072243;28;20044;-60
2023/07/23 02:31:10;;;;;;;5.82;3.13;;;;;;;20.70;56.24;100473.38;5073378;28;20044;-60
2023/07/23 02:33:37;;;;;;;6.32;2.80;;;;;;;20.90;55.90;100471.94;5074271;28;20059;-60
2023/07/23 02:36:05;;;;;;;6.60;2.53;;;;;;;20.71;56.63;100472.19;5075174;28;20391;-60
2023/07/23 02:38:32;;;;;;;7.97;2.80;;;;;;;20.46;57.71;100468.38;5094365;28;20051;-59
2023/07/23 02:41:01;;;;;;;6.32;2.55;;;;;;;20.38;57.80;100470.28;5112963;28;20043;-59
2023/07/23 02:43:29;;;;;;;5.47;2.55;;;;;;;20.54;57.86;100470.06;5111032;28;20044;-62
2023/07/23 02:45:56;;;;;;;7.07;2.78;;;;;;;20.55;57.38;100463.25;5112380;28;20051;-62
2023/07/23 02:48:24;;;;;;;6.03;2.40;;;;;;;20.63;57.60;100468.53;5113273;28;20051;-63
2023/07/23 02:50:52;;;;;;;7.85;2.63;;;;;;;20.40;58.09;100462.31;5111915;28;20040;-62
2023/07/23 02:53:20;;;;;;;5.80;2.60;;;;;;;20.49;58.59;100468.41;5094218;28;20055;-63
2023/07/23 02:55:47;;;;;;;5.80;2.65;;;;;;;20.33;59.44;100467.06;5111185;28;20050;-60
2023/07/23 02:58:15;;;;;;;5.22;2.25;;;;;;;20.13;59.97;100475.63;5094605;28;20043;-60
2023/07/23 03:00:45;;;;;;;5.35;2.38;;;;;;;20.29;59.51;100467.03;5112355;28;20082;-63
2023/07/23 03:03:13;;;;;;;5.70;2.50;;;;;;;20.35;58.94;100457.06;5111384;28;20047;-60
2023/07/23 03:05:45;;;;;;;6.05;2.35;;;;;;;20.33;59.09;100464.25;5110959;28;20090;-60
2023/07/23 03:08:12;;;;;;;4.20;2.35;;;;;;;20.31;59.38;100463.84;5094320;28;20047;-60
2023/07/23 03:10:40;;;;;;;5.90;2.50;;;;;;;20.22;60.43;100458.56;5111559;28;20040;-59
2023/07/23 03:13:08;;;;;;;5.22;2.90;;;;;;;20.34;60.60;100463.06;5094431;28;20047;-60
2023/07/23 03:15:36;;;;;;;6.65;2.45;;;;;;;20.17;60.96;100459.69;5112985;28;20046;-61
2023/07/23 03:18:03;;;;;;;9.57;2.80;;;;;;;20.17;61.37;100463.69;5114042;28;20052;-60
2023/07/23 03:20:31;;;;;;;5.22;2.58;;;;;;;20.28;61.82;100456.19;5091647;28;20071;-60
2023/07/23 03:23:01;;;;;;;6.90;2.78;;;;;;;20.22;62.09;100460.53;5076469;28;20045;-60
2023/07/23 03:25:29;;;;;;;5.55;2.85;;;;;;;20.17;62.24;100460.91;5075425;28;20048;-61
2023/07/23 03:27:59;;;;;;;5.97;2.50;;;;;;;20.17;62.62;100456.91;5083556;28;20039;-60
2023/07/23 03:30:27;;;;;;;7.88;2.97;;;;;;;20.26;62.47;100458.59;5103432;28;20055;-63
2023/07/23 03:32:55;;;;;;;6.70;2.80;;;;;;;20.09;62.74;100463.59;5096206;28;20077;-62
2023/07/23 03:35:23;;;;;;;5.38;2.88;;;;;;;20.05;63.13;100468.31;5113417;28;20051;-63
2023/07/23 03:37:50;;;;;;;5.18;2.95;;;;;;;19.91;63.62;100462.56;5114558;28;20526;-63
2023/07/23 03:40:18;;;;;;;5.68;2.75;;;;;;;20.04;62.99;100468.72;5096972;28;20131;-63
2023/07/23 03:42:45;;;;;;;5.75;2.97;;;;;;;20.05;63.33;100448.75;5075429;28;20052;-63
2023/07/23 03:45:12;;;;;;;7.70;2.90;;;;;;;19.99;63.28;100447.50;5092480;28;20055;-63
2023/07/23 03:47:40;;;;;;;4.63;2.83;;;;;;;19.93;63.72;100460.19;5093342;28;20063;-62
2023/07/23 03:50:08;;;;;;;5.55;2.83;;;;;;;19.90;63.53;100452.59;5075270;28;20852;-62
2023/07/23 03:52:35;;;;;;;9.73;3.10;;;;;;;19.99;63.38;100449.47;5068951;28;20055;-63
2023/07/23 03:55:03;;;;;;;5.00;3.33;;;;;;;19.98;63.68;100447.84;5081129;28;20052;-62
2023/07/23 03:57:30;;;;;;;6.82;3.45;;;;;;;20.02;63.95;100448.72;5075323;28;20040;-62
2023/07/23 04:00:00;;;;;;;7.68;3.38;;;;;;;20.01;63.78;100441.53;5074748;28;20052;-63
2023/07/23 04:02:37;;;;;;;5.82;3.00;;;;;;;20.08;63.71;100438.81;5093019;28;20048;-63
2023/07/23 04:05:05;;;;;;;7.57;3.85;;;;;;;20.04;64.30;100437.94;5092854;28;20410;-60
2023/07/23 04:07:32;;;;;;;5.63;3.22;;;;;;;20.17;64.06;100444.94;5078497;28;20052;-59
2023/07/23 04:10:00;;;;;;;5.45;3.33;;;;;;;20.37;63.47;100445.50;5078785;28;20047;-59
2023/07/23 04:12:27;;;;;;;4.97;2.95;;;;;;;20.49;62.50;100443.22;5096987;28;20054;-60
2023/07/23 04:14:55;;;;;;;5.90;3.38;;;;;;;20.56;62.30;100429.28;5077829;28;20067;-58
2023/07/23 04:17:22;;;;;;;5.45;3.08;;;;;;;20.17;63.86;100435.72;5096601;28;20052;-61
2023/07/23 04:19:49;;;;;;;6.60;3.92;;;;;;;20.08;64.77;100438.81;5079006;28;20094;-62
2023/07/23 04:22:17;;;;;;;8.23;3.50;;;;;;;20.02;64.91;100438.34;5073545;28;20079;-62
2023/07/23 04:24:44;;;;;;;6.30;3.25;;;;;;;19.89;64.92;100428.59;5077280;28;20124;-63
2023/07/23 04:27:11;;;;;;;6.65;3.38;;;;;;;19.95;65.39;100432.66;5096663;28;20048;-62
2023/07/23 04:29:39;;;;;;;6.00;3.58;;;;;;;19.87;65.48;100435.78;5095942;28;20135;-62
2023/07/23 04:32:06;;;;;;;6.22;3.35;;;;;;;19.88;65.51;100432.59;5078879;28;20050;-59
2023/07/23 04:34:34;;;;;;;4.97;3.03;;;;;;;20.02;65.66;100438.34;5096366;28;20036;-59
2023/07/23 04:37:01;;;;;;;5.05;3.13;;;;;;;20.11;64.93;100440.81;5074543;28;20078;-59
2023/07/23 04:39:28;;;;;;;5.57;3.30;;;;;;;20.17;65.10;100444.09;5087048;28;20059;-60
2023/07/23 04:41:56;;;;;;;6.00;2.85;;;;;;;20.05;65.00;100442.34;5095821;28;20052;-60
2023/07/23 04:44:23;;;;;;;6.53;3.30;;;;;;;19.99;65.16;100443.91;5111738;28;20055;-60
2023/07/23 04:46:50;;;;;;;5.05;2.90;;;;;;;20.02;65.09;100434.72;5030625;28;20432;-59
2023/07/23 04:49:18;;;;;;;7.10;3.40;;;;;;;20.11;65.05;100438.84;5013481;28;20062;-60
2023/07/23 04:51:45;;;;;;;5.05;2.85;;;;;;;20.00;65.45;100437.91;5090426;28;20058;-60
2023/07/23 04:54:13;;;;;;;4.03;2.67;;;;;;;20.10;64.98;100440.00;5098694;28;20510;-59
2023/07/23 04:56:40;;;;;;;6.57;3.17;;;;;;;20.07;65.14;100426.81;5116434;28;20043;-59
2023/07/23 04:59:07;;;;;;;6.25;3.03;;;;;;;20.06;64.83;100435.56;5097331;28;20048;-59
2023/07/23 05:01:35;;;;;;;6.57;3.00;;;;;;;20.02;64.73;100429.13;5098082;28;20050;-60
2023/07/23 05:04:03;;;;;;;6.80;3.08;;;;;;;20.13;64.90;100430.06;5116311;28;20052;-60
2023/07/23 05:06:30;;;;;;;5.03;3.05;;;;;;;20.23;64.55;100437.78;5116401;28;20067;-62
2023/07/23 05:08:58;;;;;;;7.40;3.00;;;;;;;20.12;64.95;100437.63;5098425;28;20067;-63
2023/07/23 05:11:25;;;;;;;6.55;3.15;;;;;;;19.99;65.23;100450.31;5098552;28;20051;-63
2023/07/23 05:13:53;;;;;;;4.28;2.63;;;;;;;19.97;66.00;100430.31;5114465;28;20048;-63
2023/07/23 05:16:20;;;;;;;6.07;3.08;;;;;;;19.94;65.52;100435.84;5113829;28;20052;-63
2023/07/23 05:18:48;;;;;;;5.78;2.92;;;;;;;20.04;65.31;100435.97;5114759;28;20434;-60
2023/07/23 05:21:15;;;;;;;5.80;3.10;;;;;;;19.98;65.79;100431.09;5116029;28;20039;-60
2023/07/23 05:23:43;;;;;;;5.55;2.88;;;;;;;20.15;65.33;100419.31;5116579;28;20549;-59
2023/07/23 05:26:10;;;;;;;5.32;2.90;;;;;;;20.52;64.34;100410.88;5115465;28;20383;-60
2023/07/23 05:28:38;;;;;;;5.72;2.67;;;;;;;20.47;64.29;100406.41;5114893;28;20048;-60
2023/07/23 05:31:05;;;;;;;5.13;2.95;;;;;;;20.54;63.90;100408.50;5116151;28;20047;-60
2023/07/23 05:33:33;;;;;;;7.82;3.08;;;;;;;20.37;64.71;100409.13;5097821;28;20040;-60
2023/07/23 05:36:01;;;;;;;6.43;2.80;;;;;;;20.33;64.97;100419.50;5109173;28;20032;-60
2023/07/23 05:38:28;;;;;;;5.60;2.88;;;;;;;20.37;65.12;100414.72;5095657;28;20059;-60
2023/07/23 05:40:57;;;;;;;4.40;2.70;;;;;;;20.34;64.68;100409.91;5110390;28;20050;-60
2023/07/23 05:43:24;;;;;;;6.45;2.97;;;;;;;20.31;65.07;100408.66;5097149;28;20062;-60
2023/07/23 05:45:57;;;;;;;4.68;2.83;;;;;;;20.41;65.27;100409.97;5113155;28;20055;-60
2023/07/23 05:48:25;;;;;;;8.40;2.88;;;;;;;20.40;64.88;100402.78;5115772;28;20044;-62
2023/07/23 05:50:52;;;;;;;4.35;3.08;;;;;;;20.38;65.52;100405.94;5115931;28;20495;-62
2023/07/23 05:53:20;;;;;;;6.45;3.15;;;;;;;20.44;65.58;100412.78;5097657;28;20513;-63
2023/07/23 05:55:47;;;;;;;6.32;3.08;;;;;;;20.51;65.04;100412.84;5053710;28;20401;-61
2023/07/23 05:58:15;;;;;;;7.28;2.65;;;;;;;20.35;65.29;100400.31;5084397;28;20055;-63
2023/07/23 06:00:42;;;;;;;6.68;3.38;;;;;;;20.66;64.72;100410.97;5114212;28;20063;-62
2023/07/23 06:03:09;;;;;;;6.60;3.08;;;;;;;20.70;64.47;100422.97;5110648;28;20053;-60
2023/07/23 06:05:37;;;;;;;22.17;3.53;;;;;;;20.87;64.05;100416.75;5097526;28;20047;-60
2023/07/23 06:08:04;;;;;;;6.05;3.25;;;;;;;20.87;63.81;100417.50;5115809;28;20054;-63
2023/07/23 06:10:32;;;;;;;7.38;3.58;;;;;;;20.61;65.37;100414.94;5115317;28;20051;-62
2023/07/23 06:12:59;;;;;;;6.05;3.08;;;;;;;20.88;64.69;100421.94;5084964;28;20048;-64
2023/07/23 06:15:27;;;;;;;5.47;3.00;;;;;;;20.87;64.63;100419.53;5114797;28;20056;-62
2023/07/23 06:17:54;;;;;;;6.90;3.10;;;;;;;20.85;64.08;100416.31;5110142;28;20043;-60
2023/07/23 06:20:21;;;;;;;5.80;2.90;;;;;;;20.69;64.86;100415.78;5115398;28;20564;-62
2023/07/23 06:22:49;;;;;;;5.55;3.38;;;;;;;20.81;65.01;100413.50;5114590;28;20047;-60
2023/07/23 06:25:16;;;;;;;7.72;3.13;;;;;;;20.92;64.34;100413.56;5115160;28;20051;-62
2023/07/23 06:27:44;;;;;;;7.78;3.63;;;;;;;20.93;64.08;100415.16;5077001;28;20042;-60
2023/07/23 06:30:11;;;;;;;7.88;3.30;;;;;;;20.69;65.16;100415.78;5107836;28;20058;-62
2023/07/23 06:32:39;;;;;;;5.00;3.05;;;;;;;20.70;65.06;100425.78;5114513;28;20059;-62
2023/07/23 06:35:10;;;;;;;5.35;3.20;;;;;;;20.80;65.02;100422.28;5110537;28;20039;-62
2023/07/23 06:37:41;;;;;;;6.70;3.72;;;;;;;21.02;64.36;100418.44;5114584;28;20047;-63
2023/07/23 06:40:09;;;;;;;7.20;3.50;;;;;;;21.06;63.85;100414.47;5115024;28;20059;-63
2023/07/23 06:42:36;;;;;;;7.28;3.50;;;;;;;21.18;63.55;100413.34;5114238;28;20047;-62
2023/07/23 06:45:04;;;;;;;7.50;3.47;;;;;;;21.13;64.17;100422.91;5073597;28;20050;-64
2023/07/23 06:47:31;;;;;;;5.07;3.10;;;;;;;21.16;63.94;100418.53;5042381;28;20051;-64
2023/07/23 06:49:59;;;;;;;6.30;3.40;;;;;;;21.07;64.26;100421.69;5114833;28;20055;-62
2023/07/23 06:52:27;;;;;;;6.57;3.33;;;;;;;20.86;65.16;100423.50;5114431;28;20039;-62
2023/07/23 06:54:54;;;;;;;5.80;3.47;;;;;;;21.00;64.82;100409.63;5096631;28;20054;-63
2023/07/23 06:57:24;;;;;;;6.10;3.40;;;;;;;21.29;63.90;100428.19;5113859;28;20487;-62
2023/07/23 06:59:51;;;;;;;7.07;3.25;;;;;;;21.15;64.48;100423.31;5088515;28;20047;-62
2023/07/23 07:02:18;;;;;;;5.97;3.42;;;;;;;21.18;64.23;100427.34;5098610;28;20054;-62
2023/07/23 07:04:46;;;;;;;6.57;3.70;;;;;;;21.08;64.58;100428.06;5088590;28;20168;-62
2023/07/23 07:07:13;;;;;;;6.72;3.80;;;;;;;21.12;64.88;100424.13;5088977;28;20047;-62
2023/07/23 07:09:40;;;;;;;7.70;3.95;;;;;;;21.06;64.86;100424.88;5113836;28;20047;-62
2023/07/23 07:12:08;;;;;;;9.15;3.97;;;;;;;21.30;64.13;100441.03;5107364;28;20044;-63
2023/07/23 07:14:35;;;;;;;6.95;4.00;;;;;;;21.45;63.21;100433.47;5112760;28;20056;-61
2023/07/23 07:17:03;;;;;;;9.40;4.18;;;;;;;21.48;63.17;100425.09;5095652;28;20036;-63
2023/07/23 07:19:33;;;;;;;6.03;3.92;;;;;;;21.57;62.42;100419.13;5097341;28;20050;-63
2023/07/23 07:22:00;;;;;;;6.85;3.55;;;;;;;21.50;62.67;100422.69;5092901;28;20052;-64
2023/07/23 07:24:28;;;;;;;5.85;3.40;;;;;;;21.37;62.65;100418.66;5096272;28;20052;-60
2023/07/23 07:26:56;;;;;;;7.55;3.50;;;;;;;21.46;62.87;100421.09;5112275;28;20114;-61
2023/07/23 07:29:23;;;;;;;7.72;3.97;;;;;;;21.46;62.70;100421.09;5093359;28;20067;-61
2023/07/23 07:31:51;;;;;;;5.72;3.30;;;;;;;21.60;62.21;100421.16;5092205;28;20059;-63
2023/07/23 07:34:18;;;;;;;8.68;3.47;;;;;;;21.64;62.06;100405.94;5047426;28;20050;-63
2023/07/23 07:36:45;;;;;;;5.20;3.33;;;;;;;21.63;62.26;100414.75;5087436;28;20044;-63
2023/07/23 07:39:13;;;;;;;7.13;3.75;;;;;;;21.66;62.05;100417.56;5093921;28;20071;-63
2023/07/23 07:41:40;;;;;;;5.22;3.22;;;;;;;21.76;61.21;100418.81;5095058;28;20054;-64
2023/07/23 07:44:08;;;;;;;8.70;3.85;;;;;;;21.66;61.97;100423.16;5112331;28;20048;-63
2023/07/23 07:46:35;;;;;;;5.85;3.58;;;;;;;21.61;62.11;100423.56;5112965;28;20039;-63
2023/07/23 07:49:04;;;;;;;6.90;3.25;;;;;;;21.87;61.48;100428.88;5064151;28;20043;-62
2023/07/23 07:51:32;;;;;;;5.65;3.35;;;;;;;21.91;61.13;100426.09;5106293;28;20058;-64
2023/07/23 07:53:59;;;;;;;7.22;3.60;;;;;;;22.08;60.45;100431.75;5104441;28;20043;-63
2023/07/23 07:56:27;;;;;;;9.88;3.45;;;;;;;22.23;60.16;100433.34;5104482;28;20058;-63
2023/07/23 07:58:55;;;;;;;9.82;3.47;;;;;;;22.27;60.05;100436.16;5104928;28;20413;-63
2023/07/23 08:01:23;;;;;;;11.73;3.67;;;;;;;22.19;60.11;100426.94;5052406;28;20050;-63
2023/07/23 08:03:50;;;;;;;6.75;3.25;;;;;;;22.14;60.20;100427.31;5081424;28;20048;-65
2023/07/23 08:06:18;;;;;;;7.32;3.58;;;;;;;22.20;60.59;100431.34;5108958;28;20059;-65
2023/07/23 08:08:49;;;;;;;6.07;3.27;;;;;;;22.15;60.61;100430.94;5070611;28;20042;-64
2023/07/23 08:11:17;;;;;;;8.05;4.18;;;;;;;22.34;60.02;100428.56;5108722;28;20051;-64
2023/07/23 08:13:44;;;;;;;7.80;4.20;;;;;;;22.25;60.31;100421.72;5093152;28;20062;-65
2023/07/23 08:16:15;;;;;;;7.55;3.90;;;;;;;22.33;59.84;100428.97;5078432;28;20054;-65
2023/07/23 08:18:44;;;;;;;5.40;3.22;;;;;;;22.33;59.76;100429.75;5085940;28;20051;-65
2023/07/23 08:21:12;;;;;;;6.13;3.53;;;;;;;22.46;59.58;100435.78;5121371;28;20039;-64
2023/07/23 08:23:39;;;;;;;8.13;3.30;;;;;;;22.67;58.87;100432.22;5118468;28;20055;-64
2023/07/23 08:26:07;;;;;;;7.43;3.40;;;;;;;22.79;58.45;100437.41;5106419;28;20181;-63
2023/07/23 08:28:38;;;;;;;8.65;3.72;;;;;;;22.65;58.73;100431.84;5061360;28;20040;-64
2023/07/23 08:31:06;;;;;;;6.20;3.42;;;;;;;22.44;59.37;100441.00;5105935;28;20048;-64
2023/07/23 08:33:33;;;;;;;8.88;6.63;;;;;;;22.37;59.83;100440.22;5108124;28;20050;-64
2023/07/23 08:36:01;;;;;;;5.18;3.30;;;;;;;22.59;59.43;100428.63;5105296;28;20043;-63
2023/07/23 08:38:29;;;;;;;7.93;3.53;;;;;;;22.69;58.99;100438.22;5087673;28;20048;-63
2023/07/23 08:41:03;;;;;;;11.98;3.45;;;;;;;22.76;58.60;100421.38;5104365;28;20418;-64
2023/07/23 08:43:34;;;;;;;7.32;3.42;;;;;;;22.70;58.90;100426.59;5044018;28;20049;-65
2023/07/23 08:46:23;;;;;;;7.40;3.35;;;;;;;22.33;60.15;100432.56;5096138;28;20047;-63
2023/07/23 08:49:03;;;;;;;11.50;3.97;;;;;;;22.31;60.77;100431.38;5107375;28;20439;-63
2023/07/23 08:51:34;;;;;;;6.68;3.85;;;;;;;22.43;60.12;100430.16;5092281;28;20051;-65
2023/07/23 08:54:02;;;;;;;7.60;3.50;;;;;;;22.61;60.17;100443.06;5087776;28;20052;-64
2023/07/23 08:56:30;;;;;;;6.38;3.30;;;;;;;23.05;58.39;100436.97;5110357;28;20047;-64
2023/07/23 08:58:58;;;;;;;6.25;3.20;;;;;;;22.90;59.07;100430.59;5114513;28;20505;-65
2023/07/23 09:01:25;;;;;;;8.02;3.47;;;;;;;23.03;nan;100433.78;5099138;28;20517;-65
2023/07/23 09:03:53;;;;;;;11.65;3.50;;;;;;;22.90;59.91;100426.97;5094970;28;20051;-64
2023/07/23 09:06:21;;;;;;;7.30;3.53;;;;;;;23.00;59.78;100431.78;5111562;28;20403;-65
2023/07/23 09:08:50;;;;;;;6.38;3.47;;;;;;;23.01;59.34;100434.16;5110963;28;20507;-65
2023/07/23 09:11:18;;;;;;;8.20;3.70;;;;;;;23.21;58.55;100431.72;5091031;28;20064;-66
2023/07/23 09:13:45;;;;;;;7.40;3.05;;;;;;;23.37;58.08;100429.31;5092287;28;20047;-65
2023/07/23 09:16:12;;;;;;;5.88;3.10;;;;;;;23.42;57.29;100428.88;5094651;28;20043;-64
2023/07/23 09:18:40;;;;;;;10.77;3.63;;;;;;;23.61;57.17;100434.03;5108012;28;20055;-65
2023/07/23 09:21:09;;;;;;;10.73;4.90;;;;;;;23.48;57.77;100430.09;5096512;28;20407;-65
2023/07/23 09:23:36;;;;;;;8.63;3.78;;;;;;;23.47;57.46;100427.69;5076771;28;20070;-64
2023/07/23 09:26:08;;;;;;;7.93;3.47;;;;;;;23.41;58.09;100424.47;5097182;28;20070;-66
2023/07/23 09:28:36;;;;;;;6.80;3.65;;;;;;;23.42;58.58;100426.88;5112326;28;20039;-65
2023/07/23 09:31:03;;;;;;;6.72;4.25;;;;;;;23.37;59.00;100423.69;5114617;28;20088;-64
2023/07/23 09:33:34;;;;;;;8.45;3.35;;;;;;;23.42;58.68;100434.50;5111260;28;20047;-65
2023/07/23 09:36:05;;;;;;;6.13;3.13;;;;;;;23.43;58.79;100441.75;5092054;28;20043;-65
2023/07/23 09:38:34;;;;;;;5.57;3.20;;;;;;;23.50;58.71;100446.53;5093627;28;20563;-65
2023/07/23 09:41:01;;;;;;;6.90;3.27;;;;;;;23.65;58.08;100442.44;5107959;28;20058;-66
2023/07/23 09:43:29;;;;;;;6.35;3.10;;;;;;;23.60;57.59;100446.50;5094198;28;20498;-65
2023/07/23 09:45:57;;;;;;;6.38;3.28;;;;;;;23.33;58.81;100442.56;5091228;28;20051;-64
2023/07/23 09:48:26;;;;;;;6.07;3.42;;;;;;;23.25;58.84;100441.78;5092380;28;20048;-64
2023/07/23 09:50:57;;;;;;;7.38;3.40;;;;;;;23.26;59.17;100451.78;5093788;28;20055;-65
2023/07/23 09:53:28;;;;;;;5.78;3.10;;;;;;;23.18;59.97;100461.47;5089549;28;20063;-65
2023/07/23 09:55:57;;;;;;;6.53;3.35;;;;;;;23.37;59.76;100465.84;5113029;28;20070;-64
2023/07/23 09:58:25;;;;;;;5.93;3.22;;;;;;;23.20;60.99;100463.84;5091265;28;20526;-64
2023/07/23 10:00:53;;;;;;;7.63;2.88;;;;;;;23.15;60.94;100469.91;5104828;28;20058;-67
2023/07/23 10:03:21;;;;;;;10.05;6.65;;;;;;;23.13;61.53;100477.91;5108058;28;20573;-64
2023/07/23 10:05:49;;;;;;;9.57;3.83;;;;;;;23.10;61.58;100476.72;5109897;28;20047;-66
2023/07/23 10:08:20;;;;;;;10.05;3.58;;;;;;;23.07;62.60;100479.53;5112959;28;20039;-66
2023/07/23 10:10:47;;;;;;;10.52;3.38;;;;;;;22.97;63.73;100483.16;5110171;28;20048;-66
2023/07/23 10:13:15;;;;;;;7.75;3.10;;;;;;;23.40;62.38;100476.28;5111370;28;20040;-66
2023/07/23 10:15:43;;;;;;;8.32;3.22;;;;;;;23.20;63.71;100480.72;5075396;28;20039;-65
2023/07/23 10:18:11;;;;;;;7.13;3.40;;;;;;;23.35;63.54;100488.75;5108142;28;20048;-67
2023/07/23 10:20:39;;;;;;;5.85;3.50;;;;;;;23.57;63.36;100488.69;5106102;28;20372;-64
2023/07/23 10:23:06;;;;;;;6.38;3.60;;;;;;;23.38;65.02;100490.75;5090955;28;20414;-65
2023/07/23 10:25:35;;;;;;;8.68;3.35;;;;;;;23.34;65.50;100481.50;5108579;28;20062;-65
2023/07/23 10:28:09;;;;;;;6.28;4.00;;;;;;;23.15;66.76;100500.81;5107141;28;20043;-66
2023/07/23 10:30:37;;;;;;;13.40;4.05;;;;;;;23.16;67.56;100482.72;5092855;28;20039;-64
2023/07/23 10:33:11;;;;;;;7.63;5.07;;;;;;;23.12;67.82;100496.78;5112239;28;20039;-64
2023/07/23 10:35:51;;;;;;;6.85;4.00;;;;;;;23.21;68.28;100496.38;5105304;28;20048;-65
2023/07/23 10:38:29;;;;;;;8.77;4.53;;;;;;;23.33;68.09;100493.16;5112602;28;20447;-65
2023/07/23 10:40:57;;;;;;;9.23;4.45;;;;;;;23.29;68.29;100489.56;5094631;28;21026;-64
2023/07/23 10:43:48;;;;;;;6.90;3.97;;;;;;;23.19;68.44;100493.97;5108460;28;20047;-66
2023/07/23 10:46:20;;;;;;;8.88;4.00;;;;;;;23.02;69.21;100508.84;5106440;28;20047;-65
2023/07/23 10:48:49;;;;;;;8.60;6.35;;;;;;;22.89;70.24;100507.63;5111090;28;20039;-65
2023/07/23 10:51:19;;;;;;;11.15;6.38;;;;;;;22.79;71.75;100504.81;5110055;28;20398;-65
2023/07/23 10:54:05;;;;;;;7.63;4.95;;;;;;;22.72;72.66;100513.22;5112803;28;20043;-64
2023/07/23 10:56:36;;;;;;;12.38;5.13;;;;;;;22.81;72.90;100502.41;5111384;28;20074;-66
2023/07/23 10:59:08;;;;;;;9.23;4.97;;;;;;;22.67;73.04;100505.22;5108160;28;20043;-66
2023/07/23 11:01:40;;;;;;;12.93;4.88;;;;;;;22.61;73.85;100506.81;5103732;28;20048;-66
2023/07/23 11:04:16;;;;;;;10.23;4.82;;;;;;;22.60;75.22;100505.19;5110132;28;20047;-65
2023/07/23 11:07:01;;;;;;;10.55;5.00;;;;;;;22.40;77.55;100501.97;5105667;28;20508;-65
2023/07/23 11:09:30;;;;;;;8.90;5.05;;;;;;;22.42;77.91;100505.16;5108108;28;20067;-65
2023/07/23 11:11:59;;;;;;;8.77;5.00;;;;;;;22.81;75.92;100493.97;5102021;28;20048;-64
2023/07/23 11:14:28;;;;;;;8.55;4.68;;;;;;;22.88;76.72;100491.19;5103538;28;20047;-66
2023/07/23 11:16:57;;;;;;;9.10;4.80;;;;;;;22.89;76.38;100501.22;5088842;28;20047;-65
2023/07/23 11:19:26;;;;;;;10.50;4.70;;;;;;;23.13;76.18;100497.59;5048276;28;20050;-64
2023/07/23 11:21:56;;;;;;;7.00;4.35;;;;;;;23.11;75.62;100503.63;5084475;28;20047;-65
2023/07/23 11:24:25;;;;;;;7.53;4.35;;;;;;;23.14;75.68;100502.00;5065267;28;20063;-64
2023/07/23 11:26:56;;;;;;;6.88;4.32;;;;;;;23.16;75.64;100503.22;5104603;28;20043;-65
2023/07/23 11:29:24;;;;;;;5.70;4.38;;;;;;;23.11;75.71;100502.81;5085442;28;20442;-65